sensor_id;sensor_type;location;lat;lon;timestamp;pressure;altitude;pressure_sealevel;temperature;humidity
24390;BME280;12510;56.468;-3.004;2023-06-14T00:02:17;101243.41;;;17.87;100.00
24390;BME280;12510;56.468;-3.004;2023-06-14T00:04:44;101245.38;;;17.85;100.00
24390;BME280;12510;56.468;-3.004;2023-06-14T00:07:11;101233.09;;;17.84;100.00
24390;BME280;12510;56.468;-3.004;2023-06-14T00:09:39;101246.72;;;17.81;100.00
24390;BME280;12510;56.468;-3.004;2023-06-14T00:12:06;101239.44;;;17.75;100.00
24390;BME280;12510;56.468;-3.004;2023-06-14T00:14:33;101245.41;;;17.69;100.00
24390;BME280;12510;56.468;-3.004;2023-06-14T00:16:59;101245.59;;;17.67;100.00
24390;BME280;12510;56.468;-3.004;2023-06-14T00:19:26;101244.59;;;17.60;100.00
24390;BME280;12510;56.468;-3.004;2023-06-14T00:21:52;101248.44;;;17.66;100.00
24390;BME280;12510;56.468;-3.004;2023-06-14T00:24:19;101252.25;;;17.71;100.00
24390;BME280;12510;56.468;-3.004;2023-06-14T00:26:47;101257.22;;;17.74;100.00
24390;BME280;12510;56.468;-3.004;2023-06-14T00:29:13;101247.91;;;17.70;100.00
24390;BME280;12510;56.468;-3.004;2023-06-14T00:31:40;101256.75;;;17.79;100.00
24390;BME280;12510;56.468;-3.004;2023-06-14T00:34:06;101258.41;;;17.72;100.00
24390;BME280;12510;56.468;-3.004;2023-06-14T00:36:33;101264.91;;;17.78;100.00
24390;BME280;12510;56.468;-3.004;2023-06-14T00:39:00;101258.06;;;17.75;100.00
24390;BME280;12510;56.468;-3.004;2023-06-14T00:41:26;101267.22;;;17.72;100.00
24390;BME280;12510;56.468;-3.004;2023-06-14T00:43:53;101258.56;;;17.70;100.00
24390;BME280;12510;56.468;-3.004;2023-06-14T00:46:22;101261.72;;;17.74;100.00
24390;BME280;12510;56.468;-3.004;2023-06-14T00:48:49;101257.41;;;17.73;100.00
24390;BME280;12510;56.468;-3.004;2023-06-14T00:51:16;101258.41;;;17.72;100.00
24390;BME280;12510;56.468;-3.004;2023-06-14T00:53:43;101256.91;;;17.61;100.00
24390;BME280;12510;56.468;-3.004;2023-06-14T00:56:13;101266.06;;;17.67;100.00
24390;BME280;12510;56.468;-3.004;2023-06-14T00:58:41;101262.06;;;17.54;100.00
24390;BME280;12510;56.468;-3.004;2023-06-14T01:01:10;101260.22;;;17.47;100.00
24390;BME280;12510;56.468;-3.004;2023-06-14T01:03:36;101259.75;;;17.43;100.00
24390;BME280;12510;56.468;-3.004;2023-06-14T01:09:28;101261.41;;;17.28;100.00
24390;BME280;12510;56.468;-3.004;2023-06-14T01:12:21;101264.56;;;17.23;100.00
24390;BME280;12510;56.468;-3.004;2023-06-14T01:14:52;101265.56;;;17.22;100.00
24390;BME280;12510;56.468;-3.004;2023-06-14T01:17:20;101262.56;;;17.25;100.00
24390;BME280;12510;56.468;-3.004;2023-06-14T01:19:48;101263.06;;;17.20;100.00
24390;BME280;12510;56.468;-3.004;2023-06-14T01:22:15;101267.69;;;17.10;100.00
24390;BME280;12510;56.468;-3.004;2023-06-14T01:24:41;101256.69;;;17.05;100.00
24390;BME280;12510;56.468;-3.004;2023-06-14T01:27:12;101269.47;;;16.93;100.00
24390;BME280;12510;56.468;-3.004;2023-06-14T01:29:40;101268.03;;;16.99;100.00
24390;BME280;12510;56.468;-3.004;2023-06-14T01:32:15;101263.50;;;16.91;100.00
24390;BME280;12510;56.468;-3.004;2023-06-14T01:34:42;101269.19;;;16.96;100.00
24390;BME280;12510;56.468;-3.004;2023-06-14T01:37:09;101266.53;;;17.04;100.00
24390;BME280;12510;56.468;-3.004;2023-06-14T01:39:37;101264.69;;;17.13;100.00
24390;BME280;12510;56.468;-3.004;2023-06-14T01:42:04;101272.38;;;17.24;100.00
24390;BME280;12510;56.468;-3.004;2023-06-14T01:44:32;101263.56;;;17.32;100.00
24390;BME280;12510;56.468;-3.004;2023-06-14T01:47:01;101269.75;;;17.57;100.00
24390;BME280;12510;56.468;-3.004;2023-06-14T01:49:28;101267.22;;;17.81;100.00
24390;BME280;12510;56.468;-3.004;2023-06-14T01:51:54;101274.53;;;17.87;100.00
24390;BME280;12510;56.468;-3.004;2023-06-14T01:54:20;101274.22;;;17.98;100.00
24390;BME280;12510;56.468;-3.004;2023-06-14T01:56:48;101274.69;;;18.10;100.00
24390;BME280;12510;56.468;-3.004;2023-06-14T01:59:14;101277.16;;;18.20;100.00
24390;BME280;12510;56.468;-3.004;2023-06-14T02:01:43;101269.66;;;18.23;100.00
24390;BME280;12510;56.468;-3.004;2023-06-14T02:04:09;101264.16;;;18.25;100.00
24390;BME280;12510;56.468;-3.004;2023-06-14T02:06:37;101262.28;;;18.42;100.00
24390;BME280;12510;56.468;-3.004;2023-06-14T02:09:04;101265.31;;;18.70;100.00
24390;BME280;12510;56.468;-3.004;2023-06-14T02:11:30;101261.78;;;18.70;100.00
24390;BME280;12510;56.468;-3.004;2023-06-14T02:13:57;101259.53;;;18.58;100.00
24390;BME280;12510;56.468;-3.004;2023-06-14T02:16:26;101262.13;;;18.35;100.00
24390;BME280;12510;56.468;-3.004;2023-06-14T02:18:54;101257.69;;;18.19;100.00
24390;BME280;12510;56.468;-3.004;2023-06-14T02:21:23;101262.00;;;18.12;100.00
24390;BME280;12510;56.468;-3.004;2023-06-14T02:23:50;101257.81;;;18.26;100.00
24390;BME280;12510;56.468;-3.004;2023-06-14T02:26:16;101257.69;;;18.19;100.00
24390;BME280;12510;56.468;-3.004;2023-06-14T02:28:43;101261.00;;;18.21;100.00
24390;BME280;12510;56.468;-3.004;2023-06-14T02:31:09;101258.84;;;18.17;100.00
24390;BME280;12510;56.468;-3.004;2023-06-14T02:33:35;101263.47;;;18.31;100.00
24390;BME280;12510;56.468;-3.004;2023-06-14T02:36:02;101259.78;;;18.32;100.00
24390;BME280;12510;56.468;-3.004;2023-06-14T02:38:29;101255.78;;;18.36;100.00
24390;BME280;12510;56.468;-3.004;2023-06-14T02:40:55;101256.25;;;18.40;100.00
24390;BME280;12510;56.468;-3.004;2023-06-14T02:43:22;101267.56;;;18.50;100.00
24390;BME280;12510;56.468;-3.004;2023-06-14T02:45:48;101262.88;;;18.52;100.00
24390;BME280;12510;56.468;-3.004;2023-06-14T02:48:15;101259.31;;;18.68;100.00
24390;BME280;12510;56.468;-3.004;2023-06-14T02:50:41;101258.06;;;18.79;100.00
24390;BME280;12510;56.468;-3.004;2023-06-14T02:53:10;101261.22;;;18.91;100.00
24390;BME280;12510;56.468;-3.004;2023-06-14T02:55:38;101261.22;;;18.83;100.00
24390;BME280;12510;56.468;-3.004;2023-06-14T02:58:06;101264.91;;;18.82;100.00
24390;BME280;12510;56.468;-3.004;2023-06-14T03:00:34;101253.78;;;18.78;100.00
24390;BME280;12510;56.468;-3.004;2023-06-14T03:03:02;101259.22;;;18.93;100.00
24390;BME280;12510;56.468;-3.004;2023-06-14T03:05:31;101265.06;;;18.88;100.00
24390;BME280;12510;56.468;-3.004;2023-06-14T03:07:57;101259.53;;;18.90;100.00
24390;BME280;12510;56.468;-3.004;2023-06-14T03:10:24;101266.88;;;18.88;100.00
24390;BME280;12510;56.468;-3.004;2023-06-14T03:12:51;101265.41;;;18.85;100.00
24390;BME280;12510;56.468;-3.004;2023-06-14T03:15:21;101271.72;;;18.92;100.00
24390;BME280;12510;56.468;-3.004;2023-06-14T03:17:50;101265.97;;;19.04;100.00
24390;BME280;12510;56.468;-3.004;2023-06-14T03:20:17;101268.53;;;19.20;100.00
24390;BME280;12510;56.468;-3.004;2023-06-14T03:22:46;101270.25;;;19.36;100.00
24390;BME280;12510;56.468;-3.004;2023-06-14T03:25:14;101265.69;;;19.45;100.00
24390;BME280;12510;56.468;-3.004;2023-06-14T03:27:43;101271.50;;;19.25;100.00
24390;BME280;12510;56.468;-3.004;2023-06-14T03:30:10;101270.63;;;19.33;100.00
24390;BME280;12510;56.468;-3.004;2023-06-14T03:32:37;101285.59;;;19.11;100.00
24390;BME280;12510;56.468;-3.004;2023-06-14T03:35:05;101281.16;;;19.03;100.00
24390;BME280;12510;56.468;-3.004;2023-06-14T03:37:31;101281.25;;;19.18;100.00
24390;BME280;12510;56.468;-3.004;2023-06-14T03:39:58;101290.25;;;19.17;100.00
24390;BME280;12510;56.468;-3.004;2023-06-14T03:42:25;101285.78;;;19.33;100.00
24390;BME280;12510;56.468;-3.004;2023-06-14T03:44:53;101289.66;;;19.30;100.00
24390;BME280;12510;56.468;-3.004;2023-06-14T03:47:21;101292.81;;;19.11;100.00
24390;BME280;12510;56.468;-3.004;2023-06-14T03:49:48;101287.94;;;19.14;100.00
24390;BME280;12510;56.468;-3.004;2023-06-14T03:52:14;101282.84;;;19.28;100.00
24390;BME280;12510;56.468;-3.004;2023-06-14T03:54:44;101290.47;;;19.54;100.00
24390;BME280;12510;56.468;-3.004;2023-06-14T03:57:11;101291.88;;;19.26;100.00
24390;BME280;12510;56.468;-3.004;2023-06-14T03:59:37;101299.63;;;19.36;100.00
24390;BME280;12510;56.468;-3.004;2023-06-14T04:02:04;101294.00;;;19.54;100.00
24390;BME280;12510;56.468;-3.004;2023-06-14T04:04:33;101295.94;;;19.60;100.00
24390;BME280;12510;56.468;-3.004;2023-06-14T04:07:02;101296.38;;;19.49;100.00
24390;BME280;12510;56.468;-3.004;2023-06-14T04:09:31;101303.31;;;19.58;100.00
24390;BME280;12510;56.468;-3.004;2023-06-14T04:11:57;101298.19;;;19.72;100.00
24390;BME280;12510;56.468;-3.004;2023-06-14T04:14:24;101299.94;;;19.80;100.00
24390;BME280;12510;56.468;-3.004;2023-06-14T04:16:51;101308.66;;;19.35;100.00
24390;BME280;12510;56.468;-3.004;2023-06-14T04:19:19;101303.97;;;19.37;100.00
24390;BME280;12510;56.468;-3.004;2023-06-14T04:21:46;101313.25;;;19.65;100.00
24390;BME280;12510;56.468;-3.004;2023-06-14T04:24:14;101313.19;;;19.73;100.00
24390;BME280;12510;56.468;-3.004;2023-06-14T04:26:45;101304.78;;;19.84;100.00
24390;BME280;12510;56.468;-3.004;2023-06-14T04:29:15;101307.72;;;19.66;100.00
24390;BME280;12510;56.468;-3.004;2023-06-14T04:31:43;101306.03;;;19.73;100.00
24390;BME280;12510;56.468;-3.004;2023-06-14T04:34:12;101308.47;;;19.83;100.00
24390;BME280;12510;56.468;-3.004;2023-06-14T04:36:51;101306.00;;;19.97;100.00
24390;BME280;12510;56.468;-3.004;2023-06-14T04:39:20;101310.19;;;19.76;100.00
24390;BME280;12510;56.468;-3.004;2023-06-14T04:41:48;101310.06;;;19.69;100.00
24390;BME280;12510;56.468;-3.004;2023-06-14T04:44:19;101313.00;;;19.98;100.00
24390;BME280;12510;56.468;-3.004;2023-06-14T04:46:50;101314.78;;;20.35;100.00
24390;BME280;12510;56.468;-3.004;2023-06-14T04:49:22;101320.72;;;20.46;100.00
24390;BME280;12510;56.468;-3.004;2023-06-14T04:51:49;101314.59;;;20.07;100.00
24390;BME280;12510;56.468;-3.004;2023-06-14T04:54:25;101318.28;;;20.36;100.00
24390;BME280;12510;56.468;-3.004;2023-06-14T04:56:53;101316.38;;;20.30;100.00
24390;BME280;12510;56.468;-3.004;2023-06-14T04:59:24;101318.38;;;20.57;100.00
24390;BME280;12510;56.468;-3.004;2023-06-14T05:01:51;101324.56;;;20.43;100.00
24390;BME280;12510;56.468;-3.004;2023-06-14T05:04:19;101323.34;;;20.31;100.00
24390;BME280;12510;56.468;-3.004;2023-06-14T05:06:47;101324.41;;;20.30;100.00
24390;BME280;12510;56.468;-3.004;2023-06-14T05:09:17;101328.03;;;19.99;100.00
24390;BME280;12510;56.468;-3.004;2023-06-14T05:11:44;101326.56;;;19.96;100.00
24390;BME280;12510;56.468;-3.004;2023-06-14T05:14:12;101331.81;;;19.89;100.00
24390;BME280;12510;56.468;-3.004;2023-06-14T05:16:38;101326.28;;;19.91;100.00
24390;BME280;12510;56.468;-3.004;2023-06-14T05:19:05;101331.38;;;20.16;100.00
24390;BME280;12510;56.468;-3.004;2023-06-14T05:21:32;101332.84;;;20.03;100.00
24390;BME280;12510;56.468;-3.004;2023-06-14T05:24:01;101331.66;;;20.21;100.00
24390;BME280;12510;56.468;-3.004;2023-06-14T05:26:27;101328.56;;;19.94;100.00
24390;BME280;12510;56.468;-3.004;2023-06-14T05:28:57;101333.72;;;19.34;100.00
24390;BME280;12510;56.468;-3.004;2023-06-14T05:31:24;101325.63;;;19.66;100.00
24390;BME280;12510;56.468;-3.004;2023-06-14T05:33:52;101325.88;;;20.32;100.00
24390;BME280;12510;56.468;-3.004;2023-06-14T05:36:19;101334.44;;;20.27;100.00
24390;BME280;12510;56.468;-3.004;2023-06-14T05:38:47;101331.31;;;20.39;100.00
24390;BME280;12510;56.468;-3.004;2023-06-14T05:41:14;101335.28;;;20.43;100.00
24390;BME280;12510;56.468;-3.004;2023-06-14T05:43:40;101342.81;;;20.99;100.00
24390;BME280;12510;56.468;-3.004;2023-06-14T05:46:07;101340.91;;;20.63;100.00
24390;BME280;12510;56.468;-3.004;2023-06-14T05:48:33;101341.53;;;20.35;100.00
24390;BME280;12510;56.468;-3.004;2023-06-14T05:51:00;101343.09;;;20.89;100.00
24390;BME280;12510;56.468;-3.004;2023-06-14T05:53:26;101338.59;;;20.90;100.00
24390;BME280;12510;56.468;-3.004;2023-06-14T05:55:53;101342.09;;;20.60;100.00
24390;BME280;12510;56.468;-3.004;2023-06-14T05:58:21;101350.75;;;21.07;100.00
24390;BME280;12510;56.468;-3.004;2023-06-14T06:00:48;101352.53;;;20.40;100.00
24390;BME280;12510;56.468;-3.004;2023-06-14T06:03:14;101345.22;;;20.64;100.00
24390;BME280;12510;56.468;-3.004;2023-06-14T06:05:41;101348.09;;;20.48;100.00
24390;BME280;12510;56.468;-3.004;2023-06-14T06:08:07;101345.78;;;20.59;100.00
24390;BME280;12510;56.468;-3.004;2023-06-14T06:10:34;101346.31;;;21.00;100.00
24390;BME280;12510;56.468;-3.004;2023-06-14T06:13:00;101348.81;;;21.01;100.00
24390;BME280;12510;56.468;-3.004;2023-06-14T06:15:27;101347.66;;;20.74;100.00
24390;BME280;12510;56.468;-3.004;2023-06-14T06:17:53;101349.38;;;20.67;100.00
24390;BME280;12510;56.468;-3.004;2023-06-14T06:20:20;101354.72;;;21.33;100.00
24390;BME280;12510;56.468;-3.004;2023-06-14T06:22:47;101362.97;;;20.95;100.00
24390;BME280;12510;56.468;-3.004;2023-06-14T06:25:14;101360.09;;;21.33;100.00
24390;BME280;12510;56.468;-3.004;2023-06-14T06:27:41;101354.41;;;22.36;100.00
24390;BME280;12510;56.468;-3.004;2023-06-14T06:30:07;101365.19;;;23.53;100.00
24390;BME280;12510;56.468;-3.004;2023-06-14T06:32:34;101350.31;;;23.71;100.00
24390;BME280;12510;56.468;-3.004;2023-06-14T06:35:00;101351.97;;;23.65;100.00
24390;BME280;12510;56.468;-3.004;2023-06-14T06:37:27;101364.81;;;23.76;100.00
24390;BME280;12510;56.468;-3.004;2023-06-14T06:39:53;101339.22;;;24.80;100.00
24390;BME280;12510;56.468;-3.004;2023-06-14T06:42:20;101338.31;;;25.63;100.00
24390;BME280;12510;56.468;-3.004;2023-06-14T06:44:49;101339.50;;;25.42;100.00
24390;BME280;12510;56.468;-3.004;2023-06-14T06:47:16;101335.97;;;26.17;100.00
24390;BME280;12510;56.468;-3.004;2023-06-14T06:49:42;101336.56;;;27.24;100.00
24390;BME280;12510;56.468;-3.004;2023-06-14T06:52:09;101333.72;;;28.44;100.00
24390;BME280;12510;56.468;-3.004;2023-06-14T06:54:35;101296.34;;;28.70;100.00
24390;BME280;12510;56.468;-3.004;2023-06-14T06:57:02;101299.16;;;28.75;100.00
24390;BME280;12510;56.468;-3.004;2023-06-14T06:59:28;101304.88;;;29.36;100.00
24390;BME280;12510;56.468;-3.004;2023-06-14T07:01:55;101309.38;;;28.32;100.00
24390;BME280;12510;56.468;-3.004;2023-06-14T07:04:21;101307.94;;;29.96;100.00
24390;BME280;12510;56.468;-3.004;2023-06-14T07:06:47;101294.63;;;29.09;96.03
24390;BME280;12510;56.468;-3.004;2023-06-14T07:09:14;101298.75;;;29.29;96.31
24390;BME280;12510;56.468;-3.004;2023-06-14T07:11:46;101303.81;;;29.08;97.75
24390;BME280;12510;56.468;-3.004;2023-06-14T07:14:13;101298.72;;;29.12;96.75
24390;BME280;12510;56.468;-3.004;2023-06-14T07:16:39;101322.03;;;28.55;100.00
24390;BME280;12510;56.468;-3.004;2023-06-14T07:19:07;101312.75;;;28.39;100.00
24390;BME280;12510;56.468;-3.004;2023-06-14T07:21:35;101303.22;;;29.35;95.21
24390;BME280;12510;56.468;-3.004;2023-06-14T07:24:06;101293.09;;;30.21;91.69
24390;BME280;12510;56.468;-3.004;2023-06-14T07:26:35;101300.75;;;29.34;88.79
24390;BME280;12510;56.468;-3.004;2023-06-14T07:29:02;101296.97;;;29.52;90.43
24390;BME280;12510;56.468;-3.004;2023-06-14T07:31:28;101305.75;;;30.15;91.93
24390;BME280;12510;56.468;-3.004;2023-06-14T07:33:55;101302.69;;;29.72;87.55
24390;BME280;12510;56.468;-3.004;2023-06-14T07:36:22;101300.88;;;29.78;88.83
24390;BME280;12510;56.468;-3.004;2023-06-14T07:38:48;101317.47;;;29.14;95.69
24390;BME280;12510;56.468;-3.004;2023-06-14T07:41:15;101307.22;;;30.01;89.74
24390;BME280;12510;56.468;-3.004;2023-06-14T07:43:42;101280.00;;;30.89;79.76
24390;BME280;12510;56.468;-3.004;2023-06-14T07:46:09;101296.47;;;29.89;84.66
24390;BME280;12510;56.468;-3.004;2023-06-14T07:48:35;101291.25;;;30.49;84.55
24390;BME280;12510;56.468;-3.004;2023-06-14T07:51:02;101284.69;;;31.26;77.45
24390;BME280;12510;56.468;-3.004;2023-06-14T07:53:29;101269.88;;;32.40;67.80
24390;BME280;12510;56.468;-3.004;2023-06-14T07:56:15;101296.84;;;31.14;77.00
24390;BME280;12510;56.468;-3.004;2023-06-14T07:58:41;101283.97;;;31.36;71.81
24390;BME280;12510;56.468;-3.004;2023-06-14T08:01:08;101281.56;;;31.83;69.22
24390;BME280;12510;56.468;-3.004;2023-06-14T08:03:35;101280.59;;;32.04;68.59
24390;BME280;12510;56.468;-3.004;2023-06-14T08:06:02;101292.47;;;31.13;72.09
24390;BME280;12510;56.468;-3.004;2023-06-14T08:08:28;101299.13;;;31.27;73.00
24390;BME280;12510;56.468;-3.004;2023-06-14T08:10:55;101289.84;;;32.03;70.98
24390;BME280;12510;56.468;-3.004;2023-06-14T08:13:21;101275.44;;;33.13;63.10
24390;BME280;12510;56.468;-3.004;2023-06-14T08:15:48;101283.50;;;31.87;65.79
24390;BME280;12510;56.468;-3.004;2023-06-14T08:18:14;101266.72;;;33.26;62.81
24390;BME280;12510;56.468;-3.004;2023-06-14T08:20:41;101258.19;;;33.84;56.95
24390;BME280;12510;56.468;-3.004;2023-06-14T08:23:08;101248.09;;;34.45;55.60
24390;BME280;12510;56.468;-3.004;2023-06-14T08:25:35;101254.25;;;34.16;54.57
24390;BME280;12510;56.468;-3.004;2023-06-14T08:28:01;101244.94;;;35.36;50.38
24390;BME280;12510;56.468;-3.004;2023-06-14T08:30:28;101248.34;;;34.49;48.31
24390;BME280;12510;56.468;-3.004;2023-06-14T08:32:54;101263.16;;;33.10;54.42
24390;BME280;12510;56.468;-3.004;2023-06-14T08:35:22;101257.00;;;34.61;52.76
24390;BME280;12510;56.468;-3.004;2023-06-14T08:37:49;101274.06;;;33.62;58.09
24390;BME280;12510;56.468;-3.004;2023-06-14T08:40:20;101262.75;;;34.10;54.55
24390;BME280;12510;56.468;-3.004;2023-06-14T08:42:52;101266.72;;;34.38;52.67
24390;BME280;12510;56.468;-3.004;2023-06-14T08:45:21;101268.53;;;33.92;55.08
24390;BME280;12510;56.468;-3.004;2023-06-14T08:47:48;101289.53;;;31.57;62.19
24390;BME280;12510;56.468;-3.004;2023-06-14T08:50:21;101284.72;;;33.01;nan
24390;BME280;12510;56.468;-3.004;2023-06-14T08:52:57;101288.88;;;31.77;63.27
24390;BME280;12510;56.468;-3.004;2023-06-14T08:55:30;101277.50;;;32.38;56.11
24390;BME280;12510;56.468;-3.004;2023-06-14T08:57:57;101277.91;;;33.04;57.67
24390;BME280;12510;56.468;-3.004;2023-06-14T09:00:25;101280.78;;;32.51;58.32
24390;BME280;12510;56.468;-3.004;2023-06-14T09:02:53;101274.59;;;33.69;55.49
24390;BME280;12510;56.468;-3.004;2023-06-14T09:05:24;101281.88;;;32.45;59.11
24390;BME280;12510;56.468;-3.004;2023-06-14T09:07:51;101292.22;;;32.42;62.79
24390;BME280;12510;56.468;-3.004;2023-06-14T09:10:18;101272.69;;;33.74;55.19
24390;BME280;12510;56.468;-3.004;2023-06-14T09:12:46;101299.50;;;31.73;67.64
24390;BME280;12510;56.468;-3.004;2023-06-14T09:15:13;101298.56;;;32.05;64.02
24390;BME280;12510;56.468;-3.004;2023-06-14T09:17:41;101302.22;;;33.26;65.33
24390;BME280;12510;56.468;-3.004;2023-06-14T09:20:08;101301.84;;;32.07;62.06
24390;BME280;12510;56.468;-3.004;2023-06-14T09:22:37;101306.41;;;32.55;66.73
24390;BME280;12510;56.468;-3.004;2023-06-14T09:25:04;101281.16;;;32.85;55.39
24390;BME280;12510;56.468;-3.004;2023-06-14T09:27:32;101273.88;;;34.23;57.39
24390;BME280;12510;56.468;-3.004;2023-06-14T09:29:59;101271.91;;;32.91;55.60
24390;BME280;12510;56.468;-3.004;2023-06-14T09:32:27;101261.53;;;34.41;50.87
24390;BME280;12510;56.468;-3.004;2023-06-14T09:34:53;101283.63;;;32.87;54.87
24390;BME280;12510;56.468;-3.004;2023-06-14T09:37:30;101279.00;;;32.82;56.52
24390;BME280;12510;56.468;-3.004;2023-06-14T09:39:58;101296.94;;;32.04;62.25
24390;BME280;12510;56.468;-3.004;2023-06-14T09:42:25;101278.41;;;32.75;55.63
24390;BME280;12510;56.468;-3.004;2023-06-14T09:44:53;101278.84;;;34.66;56.13
24390;BME280;12510;56.468;-3.004;2023-06-14T09:47:20;101267.38;;;34.04;50.97
24390;BME280;12510;56.468;-3.004;2023-06-14T09:49:48;101297.16;;;31.55;59.74
24390;BME280;12510;56.468;-3.004;2023-06-14T09:52:19;101268.09;;;33.54;50.16
24390;BME280;12510;56.468;-3.004;2023-06-14T09:54:47;101277.06;;;32.78;54.95
24390;BME280;12510;56.468;-3.004;2023-06-14T09:57:15;101272.97;;;32.80;52.35
24390;BME280;12510;56.468;-3.004;2023-06-14T09:59:43;101275.97;;;32.99;53.51
24390;BME280;12510;56.468;-3.004;2023-06-14T10:02:25;101264.19;;;33.86;49.45
24390;BME280;12510;56.468;-3.004;2023-06-14T10:05:02;101220.78;;;34.80;38.22
24390;BME280;12510;56.468;-3.004;2023-06-14T10:07:35;101235.63;;;33.37;40.96
24390;BME280;12510;56.468;-3.004;2023-06-14T10:10:02;101248.38;;;32.70;44.09
24390;BME280;12510;56.468;-3.004;2023-06-14T10:12:30;101254.97;;;33.46;44.82
24390;BME280;12510;56.468;-3.004;2023-06-14T10:14:57;101251.66;;;33.70;44.95
24390;BME280;12510;56.468;-3.004;2023-06-14T10:17:39;101303.63;;;31.81;69.20
24390;BME280;12510;56.468;-3.004;2023-06-14T10:23:11;101247.75;;;34.02;44.82
24390;BME280;12510;56.468;-3.004;2023-06-14T10:25:39;101229.16;;;34.94;40.25
24390;BME280;12510;56.468;-3.004;2023-06-14T10:28:18;101246.03;;;35.89;45.27
24390;BME280;12510;56.468;-3.004;2023-06-14T10:31:04;101226.81;;;36.13;39.95
24390;BME280;12510;56.468;-3.004;2023-06-14T10:33:33;101248.47;;;35.66;41.75
24390;BME280;12510;56.468;-3.004;2023-06-14T10:39:07;101246.03;;;35.89;42.32
24390;BME280;12510;56.468;-3.004;2023-06-14T10:41:37;101226.97;;;36.60;39.73
24390;BME280;12510;56.468;-3.004;2023-06-14T10:46:41;101244.72;;;34.98;43.20
24390;BME280;12510;56.468;-3.004;2023-06-14T10:49:11;101248.00;;;35.59;44.43
24390;BME280;12510;56.468;-3.004;2023-06-14T10:51:41;101309.13;;;35.84;65.61
24390;BME280;12510;56.468;-3.004;2023-06-14T10:54:13;101254.88;;;37.33;47.87
24390;BME280;12510;56.468;-3.004;2023-06-14T10:56:52;101266.88;;;36.33;51.36
24390;BME280;12510;56.468;-3.004;2023-06-14T10:59:20;101247.75;;;35.26;45.58
24390;BME280;12510;56.468;-3.004;2023-06-14T11:12:59;101285.72;;;33.93;60.98
24390;BME280;12510;56.468;-3.004;2023-06-14T11:15:31;101293.41;;;33.91;67.69
24390;BME280;12510;56.468;-3.004;2023-06-14T11:18:01;101280.72;;;34.21;60.77
24390;BME280;12510;56.468;-3.004;2023-06-14T11:20:31;101286.00;;;34.62;64.81
24390;BME280;12510;56.468;-3.004;2023-06-14T11:22:58;101268.19;;;34.15;56.16
24390;BME280;12510;56.468;-3.004;2023-06-14T11:25:25;101312.59;;;33.34;72.58
24390;BME280;12510;56.468;-3.004;2023-06-14T11:27:54;101312.09;;;32.38;74.25
24390;BME280;12510;56.468;-3.004;2023-06-14T11:30:22;101336.63;;;33.37;94.28
24390;BME280;12510;56.468;-3.004;2023-06-14T11:32:50;101270.47;;;32.58;57.23
24390;BME280;12510;56.468;-3.004;2023-06-14T11:35:18;101226.84;;;31.89;44.76
24390;BME280;12510;56.468;-3.004;2023-06-14T11:37:45;101261.53;;;32.78;60.95
24390;BME280;12510;56.468;-3.004;2023-06-14T11:40:12;101280.91;;;33.07;64.09
24390;BME280;12510;56.468;-3.004;2023-06-14T11:42:40;101263.16;;;32.00;52.55
24390;BME280;12510;56.468;-3.004;2023-06-14T11:45:08;101231.47;;;32.68;45.56
24390;BME280;12510;56.468;-3.004;2023-06-14T11:47:35;101229.88;;;32.72;42.00
24390;BME280;12510;56.468;-3.004;2023-06-14T11:50:04;101241.06;;;33.06;44.92
24390;BME280;12510;56.468;-3.004;2023-06-14T11:52:31;101236.69;;;32.95;43.43
24390;BME280;12510;56.468;-3.004;2023-06-14T11:54:58;101290.75;;;33.34;64.05
24390;BME280;12510;56.468;-3.004;2023-06-14T11:57:25;101239.97;;;32.87;46.08
24390;BME280;12510;56.468;-3.004;2023-06-14T11:59:52;101223.53;;;32.40;40.22
24390;BME280;12510;56.468;-3.004;2023-06-14T12:02:21;101209.19;;;31.97;38.77
24390;BME280;12510;56.468;-3.004;2023-06-14T12:04:48;101235.53;;;31.81;43.87
24390;BME280;12510;56.468;-3.004;2023-06-14T12:07:16;101271.41;;;32.16;51.16
24390;BME280;12510;56.468;-3.004;2023-06-14T12:12:25;101260.75;;;32.14;52.89
24390;BME280;12510;56.468;-3.004;2023-06-14T12:14:52;101210.41;;;32.32;42.39
24390;BME280;12510;56.468;-3.004;2023-06-14T12:17:19;101245.47;;;31.55;48.69
24390;BME280;12510;56.468;-3.004;2023-06-14T12:19:46;101251.56;;;32.20;52.59
24390;BME280;12510;56.468;-3.004;2023-06-14T12:22:13;101237.97;;;31.72;46.11
24390;BME280;12510;56.468;-3.004;2023-06-14T12:24:44;101229.06;;;31.45;42.33
24390;BME280;12510;56.468;-3.004;2023-06-14T12:27:12;101205.59;;;31.38;38.14
24390;BME280;12510;56.468;-3.004;2023-06-14T12:29:42;101286.56;;;32.01;61.49
24390;BME280;12510;56.468;-3.004;2023-06-14T12:32:11;101249.28;;;32.12;49.52
24390;BME280;12510;56.468;-3.004;2023-06-14T12:34:38;101204.16;;;31.63;36.46
24390;BME280;12510;56.468;-3.004;2023-06-14T12:37:04;101271.44;;;31.03;50.69
24390;BME280;12510;56.468;-3.004;2023-06-14T12:39:32;101215.50;;;31.12;38.36
24390;BME280;12510;56.468;-3.004;2023-06-14T12:41:59;101249.88;;;30.96;45.86
24390;BME280;12510;56.468;-3.004;2023-06-14T12:44:25;101231.63;;;30.64;40.90
24390;BME280;12510;56.468;-3.004;2023-06-14T12:46:52;101240.34;;;29.77;41.21
24390;BME280;12510;56.468;-3.004;2023-06-14T12:49:20;101213.69;;;29.74;35.59
24390;BME280;12510;56.468;-3.004;2023-06-14T12:51:47;101277.78;;;30.59;52.84
24390;BME280;12510;56.468;-3.004;2023-06-14T12:54:13;101263.44;;;30.64;46.37
24390;BME280;12510;56.468;-3.004;2023-06-14T12:56:40;101290.31;;;30.60;57.26
24390;BME280;12510;56.468;-3.004;2023-06-14T12:59:08;101290.03;;;30.62;53.35
24390;BME280;12510;56.468;-3.004;2023-06-14T13:01:37;101208.84;;;30.43;35.40
24390;BME280;12510;56.468;-3.004;2023-06-14T13:04:04;101244.16;;;30.65;41.54
24390;BME280;12510;56.468;-3.004;2023-06-14T13:06:30;101275.69;;;30.44;49.29